createdAt,value
2022-11-29T00:01:17.340Z,5.13
2022-11-29T00:03:44.847Z,4.47
2022-11-29T00:06:14.982Z,4.38
2022-11-29T00:08:42.307Z,4.90
2022-11-29T00:11:14.264Z,4.40
2022-11-29T00:13:40.864Z,6.40
2022-11-29T00:16:14.704Z,5.22
2022-11-29T00:18:41.323Z,5.07
2022-11-29T00:21:08.605Z,5.50
2022-11-29T00:23:35.991Z,6.20
2022-11-29T00:26:07.298Z,5.45
2022-11-29T00:28:35.575Z,5.72
2022-11-29T00:31:23.207Z,6.63
2022-11-29T00:33:50.645Z,6.07
2022-11-29T00:36:17.907Z,5.95
2022-11-29T00:38:44.484Z,5.97
2022-11-29T00:41:11.477Z,5.63
2022-11-29T00:43:39.296Z,6.45
2022-11-29T00:46:06.443Z,5.57
2022-11-29T00:48:33.938Z,6.88
2022-11-29T00:51:01.362Z,6.15
2022-11-29T00:53:28.114Z,5.88
2022-11-29T00:55:54.719Z,6.72
2022-11-29T00:58:22.132Z,6.95
2022-11-29T01:00:49.035Z,6.80
2022-11-29T01:03:16.797Z,5.55
2022-11-29T01:05:43.851Z,5.88
2022-11-29T01:08:13.761Z,5.80
2022-11-29T01:10:41.531Z,6.32
2022-11-29T01:13:08.773Z,6.60
2022-11-29T01:15:36.290Z,6.93
2022-11-29T01:18:03.266Z,7.22
2022-11-29T01:20:29.849Z,6.95
2022-11-29T01:22:56.450Z,6.38
2022-11-29T01:25:23.046Z,6.10
2022-11-29T01:27:49.559Z,7.38
2022-11-29T01:30:16.167Z,6.30
2022-11-29T01:32:42.841Z,6.50
2022-11-29T01:35:09.467Z,6.63
2022-11-29T01:37:36.038Z,7.05
2022-11-29T01:40:02.780Z,7.10
2022-11-29T01:42:29.501Z,6.82
2022-11-29T01:45:06.735Z,6.40
2022-11-29T01:47:33.801Z,6.75
2022-11-29T01:50:02.406Z,6.90
2022-11-29T01:52:32.813Z,6.32
2022-11-29T01:55:03.864Z,7.90
2022-11-29T01:57:32.877Z,8.23
2022-11-29T02:00:06.537Z,6.85
2022-11-29T02:02:46.936Z,5.78
2022-11-29T02:05:16.920Z,6.55
2022-11-29T02:07:48.315Z,6.45
2022-11-29T02:10:16.382Z,7.50
2022-11-29T02:13:05.388Z,7.10
2022-11-29T02:15:50.615Z,7.85
2022-11-29T02:18:39.399Z,6.88
2022-11-29T02:21:19.691Z,5.88
2022-11-29T02:24:01.491Z,7.50
2022-11-29T02:26:59.211Z,6.07
2022-11-29T02:29:43.468Z,6.45
2022-11-29T02:32:37.943Z,6.45
2022-11-29T02:35:28.750Z,5.22
2022-11-29T02:38:32.963Z,5.00
2022-11-29T02:40:59.453Z,5.40
2022-11-29T02:43:44.785Z,5.25
2022-11-29T02:46:44.966Z,5.65
2022-11-29T02:49:23.736Z,5.20
2022-11-29T02:52:08.576Z,6.00
2022-11-29T02:54:53.537Z,6.03
2022-11-29T02:57:36.537Z,6.63
2022-11-29T03:00:11.383Z,5.95
2022-11-29T03:05:45.458Z,6.28
2022-11-29T03:08:33.956Z,6.15
2022-11-29T03:11:29.922Z,6.15
2022-11-29T03:14:11.754Z,6.35
2022-11-29T03:17:09.054Z,6.13
2022-11-29T03:19:50.792Z,5.93
2022-11-29T03:22:35.399Z,6.80
2022-11-29T03:25:22.426Z,5.95
2022-11-29T03:28:17.479Z,6.55
2022-11-29T03:31:15.687Z,6.35
2022-11-29T03:34:14.290Z,6.13
2022-11-29T03:36:47.955Z,5.32
2022-11-29T03:39:22.025Z,6.95
2022-11-29T03:41:55.320Z,6.50
2022-11-29T03:44:27.676Z,6.43
2022-11-29T03:47:17.111Z,6.28
2022-11-29T03:49:56.202Z,6.78
2022-11-29T03:53:04.710Z,5.97
2022-11-29T03:55:47.759Z,5.55
2022-11-29T03:58:43.964Z,6.05
2022-11-29T04:01:44.513Z,7.72
2022-11-29T04:04:30.322Z,6.80
2022-11-29T04:10:00.450Z,6.32
2022-11-29T04:13:00.730Z,6.40
2022-11-29T04:15:46.256Z,6.70
2022-11-29T04:18:31.527Z,8.00
2022-11-29T04:21:31.296Z,8.13
2022-11-29T04:24:14.740Z,7.70
2022-11-29T04:26:50.369Z,7.72
2022-11-29T04:29:55.127Z,7.35
2022-11-29T04:32:22.165Z,7.68
2022-11-29T04:35:15.387Z,7.38
2022-11-29T04:38:13.017Z,7.95
2022-11-29T04:41:02.197Z,6.85
2022-11-29T04:43:56.730Z,7.13
2022-11-29T04:46:31.517Z,6.63
2022-11-29T04:49:20.034Z,6.18
2022-11-29T04:52:19.573Z,7.90
2022-11-29T04:54:56.305Z,6.72
2022-11-29T04:57:46.126Z,5.88
2022-11-29T05:00:21.756Z,7.65
2022-11-29T05:02:55.643Z,6.40
2022-11-29T05:05:43.025Z,6.90
2022-11-29T05:08:46.687Z,7.35
2022-11-29T05:11:50.259Z,6.20
2022-11-29T05:14:24.062Z,6.72
2022-11-29T05:17:32.444Z,7.03
2022-11-29T05:20:22.830Z,7.70
2022-11-29T05:23:01.719Z,6.80
2022-11-29T05:26:07.214Z,5.75
2022-11-29T05:28:58.492Z,5.70
2022-11-29T05:31:56.411Z,6.13
2022-11-29T05:34:37.165Z,5.47
2022-11-29T05:37:42.624Z,5.78
2022-11-29T05:40:36.124Z,5.40
2022-11-29T05:43:08.824Z,5.07
2022-11-29T05:46:06.093Z,5.07
2022-11-29T05:48:57.543Z,5.43
2022-11-29T05:51:33.249Z,5.78
2022-11-29T05:54:21.737Z,5.15
2022-11-29T05:57:19.478Z,4.90
2022-11-29T05:59:49.676Z,4.93
2022-11-29T06:02:51.922Z,5.97
2022-11-29T06:05:24.288Z,5.07
2022-11-29T06:08:15.772Z,5.75
2022-11-29T06:10:57.141Z,4.72
2022-11-29T06:13:42.447Z,5.93
2022-11-29T06:16:35.517Z,5.50
2022-11-29T06:19:39.896Z,5.05
2022-11-29T06:22:38.296Z,5.35
2022-11-29T06:25:43.124Z,5.90
2022-11-29T06:28:28.653Z,4.55
2022-11-29T06:31:02.238Z,4.82
2022-11-29T06:33:36.353Z,5.43
2022-11-29T06:36:20.901Z,6.40
2022-11-29T06:38:47.679Z,5.95
2022-11-29T06:41:19.714Z,5.68
2022-11-29T06:43:47.164Z,7.75
2022-11-29T06:46:13.674Z,6.35
2022-11-29T06:48:49.379Z,7.22
2022-11-29T06:51:29.582Z,6.78
2022-11-29T06:54:14.451Z,7.35
2022-11-29T06:56:54.878Z,7.38
2022-11-29T06:59:56.633Z,7.07
2022-11-29T07:02:31.678Z,7.00
2022-11-29T07:05:19.686Z,6.77
2022-11-29T07:07:47.121Z,6.45
2022-11-29T07:10:18.844Z,7.40
2022-11-29T07:12:47.220Z,7.13
2022-11-29T07:15:19.877Z,6.75
2022-11-29T07:18:24.793Z,4.97
2022-11-29T07:21:32.599Z,6.05
2022-11-29T07:24:07.890Z,4.85
2022-11-29T07:29:40.673Z,6.28
2022-11-29T07:32:35.069Z,6.10
2022-11-29T07:35:12.891Z,6.05
2022-11-29T07:37:45.549Z,5.88
2022-11-29T07:40:37.211Z,5.95
2022-11-29T07:43:18.287Z,5.90
2022-11-29T07:45:45.749Z,7.43
2022-11-29T07:48:13.499Z,6.07
2022-11-29T07:50:40.984Z,6.40
2022-11-29T07:53:15.349Z,6.00
2022-11-29T07:55:42.229Z,7.32
2022-11-29T07:58:11.875Z,6.72
2022-11-29T08:00:39.546Z,6.93
2022-11-29T08:03:06.188Z,8.02
2022-11-29T08:05:32.711Z,5.88
2022-11-29T08:07:59.749Z,6.53
2022-11-29T08:10:26.913Z,7.78
2022-11-29T08:12:54.181Z,8.20
2022-11-29T08:15:22.946Z,8.68
2022-11-29T08:17:49.565Z,9.00
2022-11-29T08:20:17.054Z,8.05
2022-11-29T08:22:43.961Z,9.07
2022-11-29T08:25:11.164Z,7.70
2022-11-29T08:27:38.241Z,9.73
2022-11-29T08:30:06.345Z,8.70
2022-11-29T08:32:34.192Z,8.38
2022-11-29T08:35:00.749Z,9.50
2022-11-29T08:37:27.332Z,9.13
2022-11-29T08:39:55.065Z,10.18
2022-11-29T08:42:21.580Z,9.10
2022-11-29T08:44:48.216Z,8.75
2022-11-29T08:47:33.410Z,8.43
2022-11-29T08:50:02.952Z,10.07
2022-11-29T08:52:54.107Z,9.68
2022-11-29T08:55:23.435Z,9.48
2022-11-29T08:57:51.419Z,10.38
2022-11-29T09:00:19.009Z,8.75
2022-11-29T09:02:46.482Z,9.88
2022-11-29T09:05:13.218Z,9.25
2022-11-29T09:07:39.900Z,9.75
2022-11-29T09:10:08.311Z,8.57
2022-11-29T09:12:39.904Z,9.45
2022-11-29T09:15:09.433Z,10.10
2022-11-29T09:17:36.120Z,10.65
2022-11-29T09:20:04.275Z,8.13
2022-11-29T09:22:31.247Z,8.70
2022-11-29T09:24:57.848Z,9.88
2022-11-29T09:27:24.401Z,8.68
2022-11-29T09:29:50.960Z,9.02
2022-11-29T09:32:17.536Z,7.35
2022-11-29T09:34:44.577Z,8.27
2022-11-29T09:37:11.376Z,7.80
2022-11-29T09:39:38.199Z,7.45
2022-11-29T09:42:23.535Z,9.02
2022-11-29T09:44:56.133Z,8.68
2022-11-29T09:47:22.656Z,8.50
2022-11-29T09:49:58.931Z,8.40
2022-11-29T09:52:25.504Z,7.60
2022-11-29T09:54:57.076Z,7.68
2022-11-29T09:57:24.929Z,8.15
2022-11-29T09:59:56.148Z,6.63
2022-11-29T10:02:45.181Z,7.25
2022-11-29T10:05:26.038Z,6.97
2022-11-29T10:08:03.042Z,6.30
2022-11-29T10:10:40.652Z,6.88
2022-11-29T10:13:16.237Z,7.40
2022-11-29T10:15:50.222Z,7.45
2022-11-29T10:18:23.286Z,7.43
2022-11-29T10:20:52.911Z,7.75
2022-11-29T10:23:29.772Z,8.20
2022-11-29T10:25:58.362Z,8.60
2022-11-29T10:28:30.514Z,8.00
2022-11-29T10:31:03.004Z,8.43
2022-11-29T10:33:34.180Z,6.70
2022-11-29T10:36:09.765Z,9.40
2022-11-29T10:41:07.598Z,8.57
2022-11-29T10:43:37.303Z,7.90
2022-11-29T10:46:06.062Z,7.70
2022-11-29T10:48:34.167Z,6.97
2022-11-29T10:51:02.020Z,6.13
2022-11-29T10:53:36.522Z,7.80
2022-11-29T10:56:09.908Z,6.45
2022-11-29T10:58:52.954Z,6.80
2022-11-29T11:01:19.800Z,7.20
2022-11-29T11:03:55.328Z,8.35
2022-11-29T11:06:26.381Z,8.32
2022-11-29T11:09:11.948Z,8.02
2022-11-29T11:11:39.537Z,8.00
2022-11-29T11:14:20.439Z,7.82
2022-11-29T11:16:47.062Z,7.38
2022-11-29T11:19:34.105Z,6.70
2022-11-29T11:22:03.866Z,7.53
2022-11-29T11:24:33.763Z,7.55
2022-11-29T11:27:01.436Z,7.63
2022-11-29T11:29:36.439Z,8.85
2022-11-29T11:32:04.885Z,7.03
2022-11-29T11:34:38.498Z,8.00
2022-11-29T11:37:19.257Z,8.65
2022-11-29T11:39:48.289Z,8.27
2022-11-29T11:42:38.693Z,8.40
2022-11-29T11:45:11.411Z,8.60
2022-11-29T11:47:44.014Z,9.68
2022-11-29T11:50:17.446Z,10.10
2022-11-29T11:52:53.188Z,9.43
2022-11-29T11:55:34.320Z,9.10
2022-11-29T11:58:16.172Z,8.65
2022-11-29T12:03:35.771Z,10.52
2022-11-29T12:06:16.926Z,9.13
2022-11-29T12:08:46.711Z,10.25
2022-11-29T12:11:17.223Z,9.98
2022-11-29T12:13:59.148Z,9.82
2022-11-29T12:16:36.718Z,10.95
2022-11-29T12:21:40.326Z,8.27
2022-11-29T12:24:39.365Z,10.02
2022-11-29T12:27:10.945Z,8.82
2022-11-29T12:29:38.185Z,9.85
2022-11-29T12:32:20.886Z,10.85
2022-11-29T12:34:58.532Z,7.40
2022-11-29T12:37:48.325Z,8.65
2022-11-29T12:40:28.823Z,7.47
2022-11-29T12:43:14.251Z,6.93
2022-11-29T12:45:44.984Z,7.72
2022-11-29T12:48:39.039Z,7.60
2022-11-29T12:51:52.658Z,7.50
2022-11-29T12:54:43.772Z,6.75
2022-11-29T12:57:28.256Z,6.47
2022-11-29T12:59:57.850Z,8.00
2022-11-29T13:02:40.767Z,5.55
2022-11-29T13:05:33.563Z,8.05
2022-11-29T13:08:22.295Z,6.07
2022-11-29T13:10:58.338Z,7.68
2022-11-29T13:13:43.533Z,8.93
2022-11-29T13:16:33.164Z,7.65
2022-11-29T13:19:17.952Z,7.72
2022-11-29T13:22:08.009Z,7.00
2022-11-29T13:24:43.082Z,6.78
2022-11-29T13:27:26.213Z,7.15
2022-11-29T13:29:53.670Z,6.78
2022-11-29T13:32:45.133Z,6.88
2022-11-29T13:35:14.814Z,7.50
2022-11-29T13:38:09.973Z,6.78
2022-11-29T13:40:53.707Z,6.18
2022-11-29T13:43:41.372Z,7.15
2022-11-29T13:46:26.097Z,6.55
2022-11-29T13:48:54.721Z,6.65
2022-11-29T13:51:37.359Z,6.43
2022-11-29T13:54:29.833Z,6.70
2022-11-29T13:57:07.656Z,6.35
2022-11-29T13:59:37.178Z,6.55
2022-11-29T14:02:13.969Z,6.70
2022-11-29T14:04:45.927Z,7.38
2022-11-29T14:07:18.449Z,7.32
2022-11-29T14:09:50.818Z,6.65
2022-11-29T14:12:39.224Z,7.75
2022-11-29T14:15:19.399Z,7.55
2022-11-29T14:17:53.680Z,6.63
2022-11-29T14:20:23.255Z,6.03
2022-11-29T14:23:05.217Z,7.55
2022-11-29T14:28:18.324Z,6.60
2022-11-29T14:30:47.206Z,7.20
2022-11-29T14:33:37.966Z,7.50
2022-11-29T14:36:26.097Z,6.15
2022-11-29T14:39:24.294Z,7.15
2022-11-29T14:41:50.833Z,7.07
2022-11-29T14:44:20.403Z,6.65
2022-11-29T14:46:48.511Z,6.25
2022-11-29T14:49:23.639Z,6.15
2022-11-29T14:52:33.714Z,6.97
2022-11-29T14:55:06.233Z,5.63
2022-11-29T14:57:48.310Z,6.30
2022-11-29T15:00:37.961Z,6.53
2022-11-29T15:03:12.818Z,7.47
2022-11-29T15:05:45.647Z,6.63
2022-11-29T15:08:26.807Z,6.63
2022-11-29T15:10:58.563Z,7.65
2022-11-29T15:13:34.878Z,6.75
2022-11-29T15:16:14.941Z,7.65
2022-11-29T15:19:20.554Z,6.35
2022-11-29T15:22:18.002Z,6.63
2022-11-29T15:24:51.586Z,5.97
2022-11-29T15:27:18.572Z,7.13
2022-11-29T15:29:48.700Z,7.25
2022-11-29T15:32:20.641Z,6.75
2022-11-29T15:34:51.264Z,7.75
2022-11-29T15:37:39.154Z,7.63
2022-11-29T15:40:18.014Z,6.85
2022-11-29T15:43:11.951Z,7.20
2022-11-29T15:45:39.712Z,7.38
2022-11-29T15:48:20.487Z,6.43
2022-11-29T15:51:19.453Z,6.47
2022-11-29T15:54:12.115Z,7.65
2022-11-29T15:56:46.715Z,6.00
2022-11-29T15:59:19.772Z,6.80
2022-11-29T16:01:50.151Z,7.10
2022-11-29T16:04:20.881Z,7.22
2022-11-29T16:06:49.476Z,7.40
2022-11-29T16:09:25.020Z,8.23
2022-11-29T16:11:51.826Z,6.53
2022-11-29T16:14:25.371Z,7.18
2022-11-29T16:16:54.304Z,6.95
2022-11-29T16:19:35.531Z,6.75
2022-11-29T16:22:16.094Z,8.02
2022-11-29T16:24:53.697Z,6.70
2022-11-29T16:27:22.305Z,8.10
2022-11-29T16:29:50.941Z,7.60
2022-11-29T16:32:30.083Z,7.80
2022-11-29T16:35:05.137Z,6.78
2022-11-29T16:37:39.420Z,7.15
2022-11-29T16:40:07.297Z,6.78
2022-11-29T16:42:34.771Z,6.50
2022-11-29T16:45:34.053Z,7.68
2022-11-29T16:48:02.649Z,7.25
2022-11-29T16:50:31.226Z,6.78
2022-11-29T16:53:33.669Z,6.90
2022-11-29T16:56:00.271Z,6.10
2022-11-29T16:58:27.607Z,8.93
2022-11-29T17:00:54.233Z,6.65
2022-11-29T17:03:21.073Z,7.38
2022-11-29T17:05:47.581Z,7.50
2022-11-29T17:08:14.210Z,7.57
2022-11-29T17:10:40.956Z,7.85
2022-11-29T17:13:11.551Z,7.00
2022-11-29T17:15:38.413Z,7.25
2022-11-29T17:18:04.996Z,7.13
2022-11-29T17:20:31.857Z,7.85
2022-11-29T17:22:58.407Z,6.70
2022-11-29T17:25:25.186Z,8.80
2022-11-29T17:27:51.725Z,7.10
2022-11-29T17:30:18.286Z,6.57
2022-11-29T17:32:44.915Z,7.78
2022-11-29T17:35:11.504Z,7.20
2022-11-29T17:37:38.169Z,7.75
2022-11-29T17:40:05.481Z,7.82
2022-11-29T17:42:32.424Z,7.82
2022-11-29T17:44:59.031Z,8.38
2022-11-29T17:47:25.621Z,8.45
2022-11-29T17:49:52.121Z,8.43
2022-11-29T17:52:18.750Z,7.80
2022-11-29T17:54:45.247Z,9.07
2022-11-29T17:57:11.839Z,9.07
2022-11-29T17:59:38.326Z,9.15
2022-11-29T18:02:05.284Z,9.57
2022-11-29T18:04:31.998Z,8.95
2022-11-29T18:06:58.670Z,8.63
2022-11-29T18:09:25.364Z,8.63
2022-11-29T18:11:52.385Z,7.57
2022-11-29T18:14:23.603Z,8.57
2022-11-29T18:16:51.311Z,9.77
2022-11-29T18:19:20.220Z,8.80
2022-11-29T18:21:48.932Z,10.25
2022-11-29T18:24:15.693Z,9.57
2022-11-29T18:26:42.908Z,9.07
2022-11-29T18:29:10.004Z,10.15
2022-11-29T18:31:39.404Z,9.60
2022-11-29T18:34:09.357Z,8.88
2022-11-29T18:36:42.994Z,10.20
2022-11-29T18:39:15.222Z,10.23
2022-11-29T18:41:44.611Z,9.13
2022-11-29T18:44:13.923Z,9.45
2022-11-29T18:46:43.058Z,9.48
2022-11-29T18:49:11.896Z,9.50
2022-11-29T18:51:39.098Z,10.75
2022-11-29T18:54:06.713Z,10.27
2022-11-29T18:56:35.103Z,8.68
2022-11-29T18:59:08.407Z,10.65
2022-11-29T19:01:40.406Z,9.13
2022-11-29T19:04:09.131Z,9.57
2022-11-29T19:06:39.780Z,9.38
2022-11-29T19:09:11.904Z,9.63
2022-11-29T19:11:39.142Z,8.85
2022-11-29T19:14:14.048Z,8.82
2022-11-29T19:16:44.127Z,8.48
2022-11-29T19:19:11.280Z,8.82
2022-11-29T19:21:39.767Z,8.65
2022-11-29T19:24:13.369Z,9.13
2022-11-29T19:26:40.617Z,7.78
2022-11-29T19:29:07.221Z,10.02
2022-11-29T19:31:33.831Z,9.32
2022-11-29T19:34:00.395Z,10.73
2022-11-29T19:36:31.514Z,10.80
2022-11-29T19:39:00.959Z,9.05
2022-11-29T19:41:33.182Z,9.30
2022-11-29T19:44:02.502Z,9.75
2022-11-29T19:46:32.240Z,9.50
2022-11-29T19:49:00.042Z,10.80
2022-11-29T19:51:28.636Z,9.73
2022-11-29T19:53:57.323Z,9.88
2022-11-29T19:56:24.510Z,10.48
2022-11-29T19:58:51.600Z,12.02
2022-11-29T20:01:20.531Z,10.40
2022-11-29T20:03:48.474Z,11.10
2022-11-29T20:06:15.958Z,11.00
2022-11-29T20:08:43.181Z,11.40
2022-11-29T20:11:13.199Z,11.43
2022-11-29T20:13:42.607Z,11.35
2022-11-29T20:16:12.609Z,11.13
2022-11-29T20:18:45.843Z,11.95
2022-11-29T20:21:23.450Z,10.95
2022-11-29T20:24:01.419Z,11.30
2022-11-29T20:26:30.257Z,12.13
2022-11-29T20:28:57.032Z,12.00
2022-11-29T20:31:23.789Z,11.77
2022-11-29T20:33:52.687Z,12.13
2022-11-29T20:36:36.577Z,10.93
2022-11-29T20:39:52.448Z,12.73
2022-11-29T20:42:39.247Z,13.23
2022-11-29T20:45:08.684Z,11.40
2022-11-29T20:47:53.856Z,11.93
2022-11-29T20:50:26.202Z,11.45
2022-11-29T20:53:30.199Z,12.82
2022-11-29T20:55:57.381Z,13.00
2022-11-29T20:58:26.195Z,12.25
2022-11-29T21:00:54.395Z,11.77
2022-11-29T21:03:22.290Z,11.93
2022-11-29T21:05:49.549Z,12.18
2022-11-29T21:08:17.953Z,13.27
2022-11-29T21:10:45.530Z,14.35
2022-11-29T21:13:13.504Z,12.77
2022-11-29T21:15:41.492Z,12.25
2022-11-29T21:18:19.698Z,12.43
2022-11-29T21:21:08.274Z,11.60
2022-11-29T21:23:44.026Z,12.20
2022-11-29T21:26:20.484Z,13.88
2022-11-29T21:28:57.509Z,12.02
2022-11-29T21:31:24.592Z,12.60
2022-11-29T21:33:51.438Z,12.57
2022-11-29T21:36:18.917Z,11.93
2022-11-29T21:38:50.887Z,11.52
2022-11-29T21:41:20.646Z,13.55
2022-11-29T21:46:34.595Z,11.80
2022-11-29T21:49:01.414Z,13.15
2022-11-29T21:51:27.978Z,10.73
2022-11-29T21:53:54.525Z,12.05
2022-11-29T21:56:21.106Z,12.70
2022-11-29T21:58:47.684Z,12.50
2022-11-29T22:01:18.203Z,12.18
2022-11-29T22:03:45.863Z,12.77
2022-11-29T22:06:16.382Z,11.57
2022-11-29T22:08:43.725Z,11.25
2022-11-29T22:11:15.870Z,12.52
2022-11-29T22:14:02.824Z,12.55
2022-11-29T22:16:29.819Z,13.07
2022-11-29T22:18:56.576Z,11.27
2022-11-29T22:21:23.765Z,13.30
2022-11-29T22:23:52.238Z,11.48
2022-11-29T22:26:18.863Z,11.45
2022-11-29T22:28:45.530Z,10.70
2022-11-29T22:31:12.455Z,12.27
2022-11-29T22:33:39.852Z,12.13
2022-11-29T22:36:11.487Z,10.68
2022-11-29T22:38:39.046Z,11.85
2022-11-29T22:41:09.885Z,11.88
2022-11-29T22:43:37.837Z,12.00
2022-11-29T22:46:15.504Z,11.00
2022-11-29T22:48:43.884Z,11.23
2022-11-29T22:51:22.138Z,12.70
2022-11-29T22:53:53.914Z,11.75
2022-11-29T22:56:22.386Z,10.57
2022-11-29T22:58:49.295Z,12.05
2022-11-29T23:01:18.372Z,12.23
2022-11-29T23:03:48.316Z,12.18
2022-11-29T23:06:17.320Z,11.52
2022-11-29T23:08:45.689Z,12.25
2022-11-29T23:11:18.796Z,13.55
2022-11-29T23:13:46.046Z,11.40
2022-11-29T23:16:15.897Z,11.88
2022-11-29T23:18:42.997Z,12.05
2022-11-29T23:21:13.112Z,13.60
2022-11-29T23:23:40.298Z,10.70
2022-11-29T23:26:08.664Z,11.85
2022-11-29T23:28:35.943Z,12.00
2022-11-29T23:31:02.765Z,12.32
2022-11-29T23:33:29.679Z,12.02
2022-11-29T23:36:01.607Z,11.82
2022-11-29T23:38:29.228Z,12.60
2022-11-29T23:40:55.895Z,11.40
2022-11-29T23:43:22.872Z,11.50
2022-11-29T23:45:49.895Z,13.02
2022-11-29T23:48:16.574Z,13.27
2022-11-29T23:50:43.645Z,14.05
2022-11-29T23:53:13.272Z,11.05
2022-11-29T23:55:39.946Z,12.57
2022-11-29T23:58:06.790Z,12.60
